Terminal Aerodrome Forecast
Issued by NWS

Home | Current Version | Previous Version | Text Only | Print | Product List | Glossary On
Versions: 1 2 3 4 5 6 7 8 9 10 11 12 13 14 15 16 17 18 19 20 21 22 23
789
FTUS43 KABR 261946 AAA
TAFMBG
TAF AMD
KMBG 261946Z 2620/2718 36011G21KT P6SM SCT026 BKN045
     FM262300 01013KT P6SM SCT045
     FM270300 03009KT P6SM SCT030=

USA.gov is the U.S. government's official web portal to all federal, state and local government web resources and services.